sensor_id;sensor_type;location;lat;lon;timestamp;P1;durP1;ratioP1;P2;durP2;ratioP2
69358;SDS011;56520;49.066;8.660;2022-07-29T00:00:33;6.38;;;2.30;;
69358;SDS011;56520;49.066;8.660;2022-07-29T00:02:59;5.70;;;2.20;;
69358;SDS011;56520;49.066;8.660;2022-07-29T00:05:24;5.20;;;2.03;;
69358;SDS011;56520;49.066;8.660;2022-07-29T00:07:50;6.70;;;2.10;;
69358;SDS011;56520;49.066;8.660;2022-07-29T00:10:15;5.35;;;2.25;;
69358;SDS011;56520;49.066;8.660;2022-07-29T00:12:41;5.65;;;2.20;;
69358;SDS011;56520;49.066;8.660;2022-07-29T00:15:06;5.65;;;2.10;;
69358;SDS011;56520;49.066;8.660;2022-07-29T00:17:32;5.47;;;2.17;;
69358;SDS011;56520;49.066;8.660;2022-07-29T00:19:59;5.53;;;2.10;;
69358;SDS011;56520;49.066;8.660;2022-07-29T00:22:24;4.97;;;1.92;;
69358;SDS011;56520;49.066;8.660;2022-07-29T00:24:50;5.00;;;2.00;;
69358;SDS011;56520;49.066;8.660;2022-07-29T00:27:15;5.25;;;2.05;;
69358;SDS011;56520;49.066;8.660;2022-07-29T00:29:42;5.90;;;2.10;;
69358;SDS011;56520;49.066;8.660;2022-07-29T00:32:07;5.22;;;2.00;;
69358;SDS011;56520;49.066;8.660;2022-07-29T00:34:33;5.68;;;2.05;;
69358;SDS011;56520;49.066;8.660;2022-07-29T00:37:17;5.20;;;1.90;;
69358;SDS011;56520;49.066;8.660;2022-07-29T00:39:42;5.38;;;2.00;;
69358;SDS011;56520;49.066;8.660;2022-07-29T00:42:08;5.85;;;2.00;;
69358;SDS011;56520;49.066;8.660;2022-07-29T00:44:38;5.63;;;2.05;;
69358;SDS011;56520;49.066;8.660;2022-07-29T00:47:05;5.00;;;2.22;;
69358;SDS011;56520;49.066;8.660;2022-07-29T00:49:31;5.18;;;2.08;;
69358;SDS011;56520;49.066;8.660;2022-07-29T00:51:56;5.53;;;1.98;;
69358;SDS011;56520;49.066;8.660;2022-07-29T00:54:22;5.43;;;2.13;;
69358;SDS011;56520;49.066;8.660;2022-07-29T00:56:48;5.30;;;2.00;;
69358;SDS011;56520;49.066;8.660;2022-07-29T00:59:14;5.47;;;2.00;;
69358;SDS011;56520;49.066;8.660;2022-07-29T01:01:39;4.82;;;2.03;;
69358;SDS011;56520;49.066;8.660;2022-07-29T01:04:05;5.90;;;1.90;;
69358;SDS011;56520;49.066;8.660;2022-07-29T01:06:31;5.07;;;2.08;;
69358;SDS011;56520;49.066;8.660;2022-07-29T01:08:58;5.22;;;2.10;;
69358;SDS011;56520;49.066;8.660;2022-07-29T01:11:24;5.70;;;1.95;;
69358;SDS011;56520;49.066;8.660;2022-07-29T01:13:50;4.97;;;2.10;;
69358;SDS011;56520;49.066;8.660;2022-07-29T01:16:21;5.18;;;1.98;;
69358;SDS011;56520;49.066;8.660;2022-07-29T01:18:53;5.93;;;2.10;;
69358;SDS011;56520;49.066;8.660;2022-07-29T01:21:40;5.10;;;2.10;;
69358;SDS011;56520;49.066;8.660;2022-07-29T01:29:43;5.05;;;2.05;;
69358;SDS011;56520;49.066;8.660;2022-07-29T01:32:14;4.93;;;2.05;;
69358;SDS011;56520;49.066;8.660;2022-07-29T01:34:54;5.45;;;2.20;;
69358;SDS011;56520;49.066;8.660;2022-07-29T01:40:02;5.60;;;2.03;;
69358;SDS011;56520;49.066;8.660;2022-07-29T01:42:36;5.13;;;2.22;;
69358;SDS011;56520;49.066;8.660;2022-07-29T01:48:10;5.60;;;2.00;;
69358;SDS011;56520;49.066;8.660;2022-07-29T01:50:48;5.18;;;1.88;;
69358;SDS011;56520;49.066;8.660;2022-07-29T01:53:21;4.88;;;1.92;;
69358;SDS011;56520;49.066;8.660;2022-07-29T01:55:52;5.30;;;2.10;;
69358;SDS011;56520;49.066;8.660;2022-07-29T01:58:19;4.90;;;2.10;;
69358;SDS011;56520;49.066;8.660;2022-07-29T02:00:46;5.32;;;2.03;;
69358;SDS011;56520;49.066;8.660;2022-07-29T02:03:13;5.05;;;1.85;;
69358;SDS011;56520;49.066;8.660;2022-07-29T02:05:42;5.20;;;2.00;;
69358;SDS011;56520;49.066;8.660;2022-07-29T02:08:10;4.90;;;1.98;;
69358;SDS011;56520;49.066;8.660;2022-07-29T02:10:38;5.07;;;2.10;;
69358;SDS011;56520;49.066;8.660;2022-07-29T02:13:05;6.15;;;2.00;;
69358;SDS011;56520;49.066;8.660;2022-07-29T02:15:32;5.25;;;1.85;;
69358;SDS011;56520;49.066;8.660;2022-07-29T02:18:07;4.82;;;1.88;;
69358;SDS011;56520;49.066;8.660;2022-07-29T02:20:36;5.75;;;2.03;;
69358;SDS011;56520;49.066;8.660;2022-07-29T02:23:04;5.22;;;2.05;;
69358;SDS011;56520;49.066;8.660;2022-07-29T02:25:29;5.10;;;1.95;;
69358;SDS011;56520;49.066;8.660;2022-07-29T02:27:56;4.35;;;1.88;;
69358;SDS011;56520;49.066;8.660;2022-07-29T02:30:24;5.15;;;2.15;;
69358;SDS011;56520;49.066;8.660;2022-07-29T02:32:51;5.47;;;2.03;;
69358;SDS011;56520;49.066;8.660;2022-07-29T02:35:17;4.82;;;2.05;;
69358;SDS011;56520;49.066;8.660;2022-07-29T02:37:44;4.90;;;1.95;;
69358;SDS011;56520;49.066;8.660;2022-07-29T02:40:32;6.03;;;2.30;;
69358;SDS011;56520;49.066;8.660;2022-07-29T02:43:00;5.20;;;2.15;;
69358;SDS011;56520;49.066;8.660;2022-07-29T02:45:27;5.93;;;2.17;;
69358;SDS011;56520;49.066;8.660;2022-07-29T02:47:54;4.82;;;2.10;;
69358;SDS011;56520;49.066;8.660;2022-07-29T02:50:30;5.22;;;2.00;;
69358;SDS011;56520;49.066;8.660;2022-07-29T02:53:07;6.00;;;2.20;;
69358;SDS011;56520;49.066;8.660;2022-07-29T02:55:41;5.40;;;1.90;;
69358;SDS011;56520;49.066;8.660;2022-07-29T02:58:14;5.18;;;2.08;;
69358;SDS011;56520;49.066;8.660;2022-07-29T03:00:48;6.43;;;2.30;;
69358;SDS011;56520;49.066;8.660;2022-07-29T03:03:16;5.50;;;2.20;;
69358;SDS011;56520;49.066;8.660;2022-07-29T03:05:43;5.45;;;2.17;;
69358;SDS011;56520;49.066;8.660;2022-07-29T03:08:10;5.70;;;2.10;;
69358;SDS011;56520;49.066;8.660;2022-07-29T03:10:37;5.57;;;2.05;;
69358;SDS011;56520;49.066;8.660;2022-07-29T03:13:07;5.13;;;2.10;;
69358;SDS011;56520;49.066;8.660;2022-07-29T03:15:34;6.00;;;2.20;;
69358;SDS011;56520;49.066;8.660;2022-07-29T03:18:00;5.65;;;2.30;;
69358;SDS011;56520;49.066;8.660;2022-07-29T03:20:26;5.97;;;2.50;;
69358;SDS011;56520;49.066;8.660;2022-07-29T03:22:52;5.82;;;2.22;;
69358;SDS011;56520;49.066;8.660;2022-07-29T03:25:18;5.20;;;2.30;;
69358;SDS011;56520;49.066;8.660;2022-07-29T03:27:44;6.47;;;2.05;;
69358;SDS011;56520;49.066;8.660;2022-07-29T03:30:12;6.57;;;2.42;;
69358;SDS011;56520;49.066;8.660;2022-07-29T03:32:38;5.47;;;2.28;;
69358;SDS011;56520;49.066;8.660;2022-07-29T03:35:04;6.15;;;2.60;;
69358;SDS011;56520;49.066;8.660;2022-07-29T03:37:30;6.07;;;2.50;;
69358;SDS011;56520;49.066;8.660;2022-07-29T03:39:57;5.43;;;2.33;;
69358;SDS011;56520;49.066;8.660;2022-07-29T03:42:24;5.50;;;2.35;;
69358;SDS011;56520;49.066;8.660;2022-07-29T03:44:52;5.68;;;2.13;;
69358;SDS011;56520;49.066;8.660;2022-07-29T03:47:20;5.93;;;2.28;;
69358;SDS011;56520;49.066;8.660;2022-07-29T03:49:51;5.47;;;2.10;;
69358;SDS011;56520;49.066;8.660;2022-07-29T03:52:18;5.28;;;2.17;;
69358;SDS011;56520;49.066;8.660;2022-07-29T03:54:45;5.43;;;2.22;;
69358;SDS011;56520;49.066;8.660;2022-07-29T03:57:11;5.43;;;2.03;;
69358;SDS011;56520;49.066;8.660;2022-07-29T03:59:37;5.43;;;2.17;;
69358;SDS011;56520;49.066;8.660;2022-07-29T04:02:04;5.22;;;2.22;;
69358;SDS011;56520;49.066;8.660;2022-07-29T04:04:33;5.05;;;2.10;;
69358;SDS011;56520;49.066;8.660;2022-07-29T04:06:59;5.50;;;2.20;;
69358;SDS011;56520;49.066;8.660;2022-07-29T04:09:25;5.20;;;2.08;;
69358;SDS011;56520;49.066;8.660;2022-07-29T04:11:50;5.28;;;2.03;;
69358;SDS011;56520;49.066;8.660;2022-07-29T04:14:16;5.50;;;2.03;;
69358;SDS011;56520;49.066;8.660;2022-07-29T04:16:41;5.35;;;2.15;;
69358;SDS011;56520;49.066;8.660;2022-07-29T04:19:07;5.22;;;2.13;;
69358;SDS011;56520;49.066;8.660;2022-07-29T04:21:36;5.28;;;2.35;;
69358;SDS011;56520;49.066;8.660;2022-07-29T04:24:03;4.90;;;2.10;;
69358;SDS011;56520;49.066;8.660;2022-07-29T04:26:28;6.82;;;2.03;;
69358;SDS011;56520;49.066;8.660;2022-07-29T04:28:54;7.53;;;2.67;;
69358;SDS011;56520;49.066;8.660;2022-07-29T04:31:19;6.35;;;2.08;;
69358;SDS011;56520;49.066;8.660;2022-07-29T04:33:45;6.18;;;2.47;;
69358;SDS011;56520;49.066;8.660;2022-07-29T04:36:11;6.10;;;2.50;;
69358;SDS011;56520;49.066;8.660;2022-07-29T04:38:36;5.22;;;2.15;;
69358;SDS011;56520;49.066;8.660;2022-07-29T04:41:02;5.13;;;2.08;;
69358;SDS011;56520;49.066;8.660;2022-07-29T04:43:28;6.15;;;2.22;;
69358;SDS011;56520;49.066;8.660;2022-07-29T04:45:53;6.05;;;2.30;;
69358;SDS011;56520;49.066;8.660;2022-07-29T04:48:19;5.40;;;2.22;;
69358;SDS011;56520;49.066;8.660;2022-07-29T04:50:44;5.95;;;2.30;;
69358;SDS011;56520;49.066;8.660;2022-07-29T04:53:10;5.75;;;2.33;;
69358;SDS011;56520;49.066;8.660;2022-07-29T04:55:35;6.30;;;2.35;;
69358;SDS011;56520;49.066;8.660;2022-07-29T04:58:01;6.00;;;2.30;;
69358;SDS011;56520;49.066;8.660;2022-07-29T05:00:26;6.03;;;2.55;;
69358;SDS011;56520;49.066;8.660;2022-07-29T05:02:52;6.47;;;2.40;;
69358;SDS011;56520;49.066;8.660;2022-07-29T05:05:17;5.53;;;2.28;;
69358;SDS011;56520;49.066;8.660;2022-07-29T05:07:43;5.85;;;2.22;;
69358;SDS011;56520;49.066;8.660;2022-07-29T05:10:08;5.20;;;2.20;;
69358;SDS011;56520;49.066;8.660;2022-07-29T05:12:34;6.05;;;2.03;;
69358;SDS011;56520;49.066;8.660;2022-07-29T05:15:00;5.10;;;2.03;;
69358;SDS011;56520;49.066;8.660;2022-07-29T05:17:25;6.60;;;2.30;;
69358;SDS011;56520;49.066;8.660;2022-07-29T05:19:51;5.50;;;2.10;;
69358;SDS011;56520;49.066;8.660;2022-07-29T05:22:17;6.78;;;2.30;;
69358;SDS011;56520;49.066;8.660;2022-07-29T05:24:44;5.60;;;2.45;;
69358;SDS011;56520;49.066;8.660;2022-07-29T05:27:09;5.90;;;2.35;;
69358;SDS011;56520;49.066;8.660;2022-07-29T05:29:35;6.53;;;2.45;;
69358;SDS011;56520;49.066;8.660;2022-07-29T05:32:00;5.35;;;2.33;;
69358;SDS011;56520;49.066;8.660;2022-07-29T05:34:26;5.88;;;2.45;;
69358;SDS011;56520;49.066;8.660;2022-07-29T05:36:51;6.60;;;2.70;;
69358;SDS011;56520;49.066;8.660;2022-07-29T05:39:17;6.40;;;2.17;;
69358;SDS011;56520;49.066;8.660;2022-07-29T05:41:42;7.35;;;2.35;;
69358;SDS011;56520;49.066;8.660;2022-07-29T05:44:08;5.68;;;2.42;;
69358;SDS011;56520;49.066;8.660;2022-07-29T05:46:33;7.05;;;2.45;;
69358;SDS011;56520;49.066;8.660;2022-07-29T05:48:59;8.25;;;2.67;;
69358;SDS011;56520;49.066;8.660;2022-07-29T05:51:24;5.93;;;2.42;;
69358;SDS011;56520;49.066;8.660;2022-07-29T05:53:50;6.15;;;2.50;;
69358;SDS011;56520;49.066;8.660;2022-07-29T05:56:15;5.70;;;2.40;;
69358;SDS011;56520;49.066;8.660;2022-07-29T05:58:41;7.47;;;2.83;;
69358;SDS011;56520;49.066;8.660;2022-07-29T06:01:06;6.32;;;2.70;;
69358;SDS011;56520;49.066;8.660;2022-07-29T06:03:31;7.00;;;2.63;;
69358;SDS011;56520;49.066;8.660;2022-07-29T06:05:57;6.30;;;2.90;;
69358;SDS011;56520;49.066;8.660;2022-07-29T06:08:22;6.63;;;2.80;;
69358;SDS011;56520;49.066;8.660;2022-07-29T06:10:48;6.20;;;2.70;;
69358;SDS011;56520;49.066;8.660;2022-07-29T06:13:13;6.68;;;3.00;;
69358;SDS011;56520;49.066;8.660;2022-07-29T06:15:41;6.93;;;2.70;;
69358;SDS011;56520;49.066;8.660;2022-07-29T06:18:07;6.25;;;2.78;;
69358;SDS011;56520;49.066;8.660;2022-07-29T06:20:34;6.63;;;2.63;;
69358;SDS011;56520;49.066;8.660;2022-07-29T06:23:00;6.13;;;2.80;;
69358;SDS011;56520;49.066;8.660;2022-07-29T06:25:26;7.63;;;2.83;;
69358;SDS011;56520;49.066;8.660;2022-07-29T06:27:54;6.65;;;2.72;;
69358;SDS011;56520;49.066;8.660;2022-07-29T06:30:19;6.10;;;2.33;;
69358;SDS011;56520;49.066;8.660;2022-07-29T06:32:45;7.30;;;2.60;;
69358;SDS011;56520;49.066;8.660;2022-07-29T06:35:11;5.72;;;2.47;;
69358;SDS011;56520;49.066;8.660;2022-07-29T06:37:36;5.72;;;2.40;;
69358;SDS011;56520;49.066;8.660;2022-07-29T06:40:02;5.57;;;2.28;;
69358;SDS011;56520;49.066;8.660;2022-07-29T06:42:49;5.47;;;2.30;;
69358;SDS011;56520;49.066;8.660;2022-07-29T06:45:15;5.90;;;2.53;;
69358;SDS011;56520;49.066;8.660;2022-07-29T06:47:41;5.65;;;2.38;;
69358;SDS011;56520;49.066;8.660;2022-07-29T06:50:06;6.50;;;2.45;;
69358;SDS011;56520;49.066;8.660;2022-07-29T06:52:36;7.03;;;2.40;;
69358;SDS011;56520;49.066;8.660;2022-07-29T06:55:01;5.35;;;2.00;;
69358;SDS011;56520;49.066;8.660;2022-07-29T06:57:27;5.78;;;2.15;;
69358;SDS011;56520;49.066;8.660;2022-07-29T06:59:52;6.63;;;2.30;;
69358;SDS011;56520;49.066;8.660;2022-07-29T07:02:18;7.25;;;2.33;;
69358;SDS011;56520;49.066;8.660;2022-07-29T07:04:43;6.30;;;2.20;;
69358;SDS011;56520;49.066;8.660;2022-07-29T07:07:09;5.85;;;2.30;;
69358;SDS011;56520;49.066;8.660;2022-07-29T07:09:34;5.97;;;2.30;;
69358;SDS011;56520;49.066;8.660;2022-07-29T07:11:59;6.07;;;1.90;;
69358;SDS011;56520;49.066;8.660;2022-07-29T07:14:25;6.10;;;2.03;;
69358;SDS011;56520;49.066;8.660;2022-07-29T07:16:51;8.13;;;2.40;;
69358;SDS011;56520;49.066;8.660;2022-07-29T07:19:17;5.65;;;2.28;;
69358;SDS011;56520;49.066;8.660;2022-07-29T07:21:44;6.32;;;2.35;;
69358;SDS011;56520;49.066;8.660;2022-07-29T07:24:09;5.00;;;1.98;;
69358;SDS011;56520;49.066;8.660;2022-07-29T07:26:34;5.93;;;2.10;;
69358;SDS011;56520;49.066;8.660;2022-07-29T07:29:00;7.05;;;2.35;;
69358;SDS011;56520;49.066;8.660;2022-07-29T07:31:25;8.65;;;2.33;;
69358;SDS011;56520;49.066;8.660;2022-07-29T07:33:51;5.78;;;2.40;;
69358;SDS011;56520;49.066;8.660;2022-07-29T07:36:18;5.82;;;2.53;;
69358;SDS011;56520;49.066;8.660;2022-07-29T07:38:43;6.18;;;2.30;;
69358;SDS011;56520;49.066;8.660;2022-07-29T07:41:09;6.07;;;2.35;;
69358;SDS011;56520;49.066;8.660;2022-07-29T07:43:34;5.72;;;2.42;;
69358;SDS011;56520;49.066;8.660;2022-07-29T07:46:00;5.38;;;2.25;;
69358;SDS011;56520;49.066;8.660;2022-07-29T07:48:25;6.20;;;2.30;;
69358;SDS011;56520;49.066;8.660;2022-07-29T07:50:56;7.30;;;2.33;;
69358;SDS011;56520;49.066;8.660;2022-07-29T07:53:22;8.65;;;2.40;;
69358;SDS011;56520;49.066;8.660;2022-07-29T07:55:47;6.25;;;2.67;;
69358;SDS011;56520;49.066;8.660;2022-07-29T07:58:13;6.25;;;2.50;;
69358;SDS011;56520;49.066;8.660;2022-07-29T08:00:38;6.03;;;2.50;;
69358;SDS011;56520;49.066;8.660;2022-07-29T08:03:04;6.18;;;2.60;;
69358;SDS011;56520;49.066;8.660;2022-07-29T08:05:29;7.18;;;2.60;;
69358;SDS011;56520;49.066;8.660;2022-07-29T08:07:55;6.25;;;2.42;;
69358;SDS011;56520;49.066;8.660;2022-07-29T08:10:20;7.13;;;2.58;;
69358;SDS011;56520;49.066;8.660;2022-07-29T08:13:08;7.13;;;2.50;;
69358;SDS011;56520;49.066;8.660;2022-07-29T08:15:35;6.22;;;2.42;;
69358;SDS011;56520;49.066;8.660;2022-07-29T08:18:02;6.88;;;2.60;;
69358;SDS011;56520;49.066;8.660;2022-07-29T08:20:28;7.47;;;2.30;;
69358;SDS011;56520;49.066;8.660;2022-07-29T08:22:54;6.47;;;2.30;;
69358;SDS011;56520;49.066;8.660;2022-07-29T08:25:20;5.85;;;2.17;;
69358;SDS011;56520;49.066;8.660;2022-07-29T08:27:46;5.28;;;2.20;;
69358;SDS011;56520;49.066;8.660;2022-07-29T08:30:12;7.88;;;2.47;;
69358;SDS011;56520;49.066;8.660;2022-07-29T08:32:37;6.43;;;2.65;;
69358;SDS011;56520;49.066;8.660;2022-07-29T08:35:03;6.03;;;2.53;;
69358;SDS011;56520;49.066;8.660;2022-07-29T08:37:29;6.40;;;2.50;;
69358;SDS011;56520;49.066;8.660;2022-07-29T08:39:54;6.88;;;2.40;;
69358;SDS011;56520;49.066;8.660;2022-07-29T08:42:20;5.55;;;2.30;;
69358;SDS011;56520;49.066;8.660;2022-07-29T08:44:46;8.60;;;2.92;;
69358;SDS011;56520;49.066;8.660;2022-07-29T08:47:13;6.10;;;2.60;;
69358;SDS011;56520;49.066;8.660;2022-07-29T08:49:39;6.70;;;2.40;;
69358;SDS011;56520;49.066;8.660;2022-07-29T08:52:05;7.20;;;2.53;;
69358;SDS011;56520;49.066;8.660;2022-07-29T08:54:31;5.57;;;2.33;;
69358;SDS011;56520;49.066;8.660;2022-07-29T08:56:58;5.47;;;2.28;;
69358;SDS011;56520;49.066;8.660;2022-07-29T08:59:24;6.53;;;2.53;;
69358;SDS011;56520;49.066;8.660;2022-07-29T09:01:52;5.88;;;2.25;;
69358;SDS011;56520;49.066;8.660;2022-07-29T09:04:18;5.45;;;2.42;;
69358;SDS011;56520;49.066;8.660;2022-07-29T09:06:46;5.45;;;2.33;;
69358;SDS011;56520;49.066;8.660;2022-07-29T09:09:13;5.30;;;2.20;;
69358;SDS011;56520;49.066;8.660;2022-07-29T09:11:40;6.75;;;2.25;;
69358;SDS011;56520;49.066;8.660;2022-07-29T09:14:06;6.38;;;2.03;;
69358;SDS011;56520;49.066;8.660;2022-07-29T09:16:51;5.30;;;2.17;;
69358;SDS011;56520;49.066;8.660;2022-07-29T09:19:30;6.78;;;2.30;;
69358;SDS011;56520;49.066;8.660;2022-07-29T09:21:59;5.72;;;2.25;;
69358;SDS011;56520;49.066;8.660;2022-07-29T09:24:28;7.00;;;2.15;;
69358;SDS011;56520;49.066;8.660;2022-07-29T09:27:24;6.55;;;1.80;;
69358;SDS011;56520;49.066;8.660;2022-07-29T09:30:10;5.95;;;1.83;;
69358;SDS011;56520;49.066;8.660;2022-07-29T09:32:54;5.43;;;1.98;;
69358;SDS011;56520;49.066;8.660;2022-07-29T09:35:22;6.05;;;1.90;;
69358;SDS011;56520;49.066;8.660;2022-07-29T09:37:49;5.43;;;2.13;;
69358;SDS011;56520;49.066;8.660;2022-07-29T09:40:16;5.20;;;2.08;;
69358;SDS011;56520;49.066;8.660;2022-07-29T09:42:43;6.28;;;2.30;;
69358;SDS011;56520;49.066;8.660;2022-07-29T09:45:09;5.90;;;2.30;;
69358;SDS011;56520;49.066;8.660;2022-07-29T09:47:45;4.47;;;1.90;;
69358;SDS011;56520;49.066;8.660;2022-07-29T09:50:13;6.07;;;1.90;;
69358;SDS011;56520;49.066;8.660;2022-07-29T09:53:12;6.18;;;2.28;;
69358;SDS011;56520;49.066;8.660;2022-07-29T09:55:31;5.80;;;1.95;;
69358;SDS011;56520;49.066;8.660;2022-07-29T10:00:52;7.15;;;1.95;;
69358;SDS011;56520;49.066;8.660;2022-07-29T10:03:18;5.68;;;2.03;;
69358;SDS011;56520;49.066;8.660;2022-07-29T10:05:44;5.53;;;1.92;;
69358;SDS011;56520;49.066;8.660;2022-07-29T10:08:11;5.10;;;1.90;;
69358;SDS011;56520;49.066;8.660;2022-07-29T10:10:41;7.60;;;2.20;;
69358;SDS011;56520;49.066;8.660;2022-07-29T10:13:11;7.05;;;2.08;;
69358;SDS011;56520;49.066;8.660;2022-07-29T10:15:38;7.15;;;2.13;;
69358;SDS011;56520;49.066;8.660;2022-07-29T10:18:06;6.30;;;1.98;;
69358;SDS011;56520;49.066;8.660;2022-07-29T10:20:33;6.82;;;1.85;;
69358;SDS011;56520;49.066;8.660;2022-07-29T10:22:59;5.35;;;1.98;;
69358;SDS011;56520;49.066;8.660;2022-07-29T10:25:25;5.20;;;1.80;;
69358;SDS011;56520;49.066;8.660;2022-07-29T10:27:51;6.88;;;2.13;;
69358;SDS011;56520;49.066;8.660;2022-07-29T10:30:18;6.00;;;1.90;;
69358;SDS011;56520;49.066;8.660;2022-07-29T10:46:36;5.13;;;2.08;;
69358;SDS011;56520;49.066;8.660;2022-07-29T10:52:01;5.07;;;1.98;;
69358;SDS011;56520;49.066;8.660;2022-07-29T10:54:37;6.00;;;1.70;;
69358;SDS011;56520;49.066;8.660;2022-07-29T10:59:37;5.45;;;1.70;;
69358;SDS011;56520;49.066;8.660;2022-07-29T11:02:03;5.45;;;1.80;;
69358;SDS011;56520;49.066;8.660;2022-07-29T11:07:22;5.60;;;1.77;;
69358;SDS011;56520;49.066;8.660;2022-07-29T11:15:01;5.45;;;1.92;;
69358;SDS011;56520;49.066;8.660;2022-07-29T11:17:27;5.22;;;1.75;;
69358;SDS011;56520;49.066;8.660;2022-07-29T11:22:57;5.35;;;1.92;;
69358;SDS011;56520;49.066;8.660;2022-07-29T11:25:23;5.35;;;1.98;;
69358;SDS011;56520;49.066;8.660;2022-07-29T11:27:48;5.53;;;2.00;;
69358;SDS011;56520;49.066;8.660;2022-07-29T11:30:14;5.13;;;2.05;;
69358;SDS011;56520;49.066;8.660;2022-07-29T11:32:41;6.43;;;1.75;;
69358;SDS011;56520;49.066;8.660;2022-07-29T11:35:13;5.70;;;1.92;;
69358;SDS011;56520;49.066;8.660;2022-07-29T11:43:46;5.95;;;1.95;;
69358;SDS011;56520;49.066;8.660;2022-07-29T11:46:11;5.20;;;1.75;;
69358;SDS011;56520;49.066;8.660;2022-07-29T11:48:37;4.40;;;1.85;;
69358;SDS011;56520;49.066;8.660;2022-07-29T11:51:10;6.10;;;2.03;;
69358;SDS011;56520;49.066;8.660;2022-07-29T11:53:39;5.13;;;1.70;;
69358;SDS011;56520;49.066;8.660;2022-07-29T11:56:07;6.13;;;1.98;;
69358;SDS011;56520;49.066;8.660;2022-07-29T11:58:34;5.70;;;1.70;;
69358;SDS011;56520;49.066;8.660;2022-07-29T12:00:59;5.78;;;1.92;;
69358;SDS011;56520;49.066;8.660;2022-07-29T12:03:26;5.35;;;2.00;;
69358;SDS011;56520;49.066;8.660;2022-07-29T12:05:53;5.65;;;1.92;;
69358;SDS011;56520;49.066;8.660;2022-07-29T12:08:19;5.50;;;1.80;;
69358;SDS011;56520;49.066;8.660;2022-07-29T12:10:47;6.35;;;2.05;;
69358;SDS011;56520;49.066;8.660;2022-07-29T12:13:15;5.30;;;1.90;;
69358;SDS011;56520;49.066;8.660;2022-07-29T12:15:42;5.20;;;1.88;;
69358;SDS011;56520;49.066;8.660;2022-07-29T12:18:17;6.60;;;2.08;;
69358;SDS011;56520;49.066;8.660;2022-07-29T12:20:45;4.60;;;1.77;;
69358;SDS011;56520;49.066;8.660;2022-07-29T12:23:11;6.50;;;2.08;;
69358;SDS011;56520;49.066;8.660;2022-07-29T12:25:37;8.02;;;2.15;;
69358;SDS011;56520;49.066;8.660;2022-07-29T12:28:05;4.93;;;1.80;;
69358;SDS011;56520;49.066;8.660;2022-07-29T12:30:47;4.80;;;1.70;;
69358;SDS011;56520;49.066;8.660;2022-07-29T12:36:01;5.10;;;2.05;;
69358;SDS011;56520;49.066;8.660;2022-07-29T12:38:28;5.88;;;2.15;;
69358;SDS011;56520;49.066;8.660;2022-07-29T12:40:54;6.10;;;2.30;;
69358;SDS011;56520;49.066;8.660;2022-07-29T12:43:23;6.05;;;2.00;;
69358;SDS011;56520;49.066;8.660;2022-07-29T12:45:50;9.50;;;2.03;;
69358;SDS011;56520;49.066;8.660;2022-07-29T12:48:32;4.60;;;1.90;;
69358;SDS011;56520;49.066;8.660;2022-07-29T12:51:02;4.93;;;1.90;;
69358;SDS011;56520;49.066;8.660;2022-07-29T12:53:29;4.72;;;1.92;;
69358;SDS011;56520;49.066;8.660;2022-07-29T12:55:55;5.10;;;1.90;;
69358;SDS011;56520;49.066;8.660;2022-07-29T12:58:27;7.35;;;1.90;;
69358;SDS011;56520;49.066;8.660;2022-07-29T13:01:02;7.18;;;2.10;;
69358;SDS011;56520;49.066;8.660;2022-07-29T13:03:47;5.32;;;1.98;;
69358;SDS011;56520;49.066;8.660;2022-07-29T13:11:37;4.70;;;1.92;;
69358;SDS011;56520;49.066;8.660;2022-07-29T13:14:04;5.90;;;1.80;;
69358;SDS011;56520;49.066;8.660;2022-07-29T13:16:31;5.30;;;2.10;;
69358;SDS011;56520;49.066;8.660;2022-07-29T13:19:03;8.32;;;1.85;;
69358;SDS011;56520;49.066;8.660;2022-07-29T13:21:29;5.60;;;1.92;;
69358;SDS011;56520;49.066;8.660;2022-07-29T13:23:54;5.63;;;2.15;;
69358;SDS011;56520;49.066;8.660;2022-07-29T13:26:20;4.50;;;1.80;;
69358;SDS011;56520;49.066;8.660;2022-07-29T13:28:45;5.28;;;1.63;;
69358;SDS011;56520;49.066;8.660;2022-07-29T13:31:11;6.57;;;1.70;;
69358;SDS011;56520;49.066;8.660;2022-07-29T13:33:36;4.65;;;1.90;;
69358;SDS011;56520;49.066;8.660;2022-07-29T13:36:02;5.38;;;1.50;;
69358;SDS011;56520;49.066;8.660;2022-07-29T13:38:27;4.35;;;1.60;;
69358;SDS011;56520;49.066;8.660;2022-07-29T13:40:53;3.65;;;1.45;;
69358;SDS011;56520;49.066;8.660;2022-07-29T13:43:18;4.72;;;1.40;;
69358;SDS011;56520;49.066;8.660;2022-07-29T13:45:44;3.75;;;1.35;;
69358;SDS011;56520;49.066;8.660;2022-07-29T13:48:09;6.38;;;1.60;;
69358;SDS011;56520;49.066;8.660;2022-07-29T13:50:36;7.15;;;1.40;;
69358;SDS011;56520;49.066;8.660;2022-07-29T13:53:01;2.97;;;1.23;;
69358;SDS011;56520;49.066;8.660;2022-07-29T13:55:27;3.75;;;1.35;;
69358;SDS011;56520;49.066;8.660;2022-07-29T13:57:52;4.55;;;1.40;;
69358;SDS011;56520;49.066;8.660;2022-07-29T14:00:18;4.10;;;1.38;;
69358;SDS011;56520;49.066;8.660;2022-07-29T14:02:44;4.07;;;1.40;;
69358;SDS011;56520;49.066;8.660;2022-07-29T14:05:09;3.30;;;1.27;;
69358;SDS011;56520;49.066;8.660;2022-07-29T14:07:36;4.45;;;1.48;;
69358;SDS011;56520;49.066;8.660;2022-07-29T14:10:03;3.55;;;1.25;;
69358;SDS011;56520;49.066;8.660;2022-07-29T14:12:29;6.45;;;1.35;;
69358;SDS011;56520;49.066;8.660;2022-07-29T14:14:55;4.35;;;1.30;;
69358;SDS011;56520;49.066;8.660;2022-07-29T14:17:21;3.50;;;1.20;;
69358;SDS011;56520;49.066;8.660;2022-07-29T14:19:47;7.30;;;1.45;;
69358;SDS011;56520;49.066;8.660;2022-07-29T14:22:12;6.55;;;1.30;;
69358;SDS011;56520;49.066;8.660;2022-07-29T14:24:38;3.50;;;1.02;;
69358;SDS011;56520;49.066;8.660;2022-07-29T14:27:04;3.83;;;1.10;;
69358;SDS011;56520;49.066;8.660;2022-07-29T14:29:30;3.70;;;1.27;;
69358;SDS011;56520;49.066;8.660;2022-07-29T14:31:56;3.25;;;1.20;;
69358;SDS011;56520;49.066;8.660;2022-07-29T14:34:22;4.13;;;1.38;;
69358;SDS011;56520;49.066;8.660;2022-07-29T14:36:47;3.25;;;1.20;;
69358;SDS011;56520;49.066;8.660;2022-07-29T14:39:13;2.30;;;1.02;;
69358;SDS011;56520;49.066;8.660;2022-07-29T14:41:40;3.97;;;1.10;;
69358;SDS011;56520;49.066;8.660;2022-07-29T14:44:06;5.05;;;1.48;;
69358;SDS011;56520;49.066;8.660;2022-07-29T14:46:31;4.03;;;1.23;;
69358;SDS011;56520;49.066;8.660;2022-07-29T14:48:56;4.65;;;1.13;;
69358;SDS011;56520;49.066;8.660;2022-07-29T14:51:22;4.50;;;1.20;;
69358;SDS011;56520;49.066;8.660;2022-07-29T14:53:47;4.15;;;1.20;;
69358;SDS011;56520;49.066;8.660;2022-07-29T14:56:13;3.88;;;1.30;;
69358;SDS011;56520;49.066;8.660;2022-07-29T14:58:38;4.55;;;1.20;;
69358;SDS011;56520;49.066;8.660;2022-07-29T15:01:04;3.75;;;1.10;;
69358;SDS011;56520;49.066;8.660;2022-07-29T15:03:30;4.75;;;1.42;;
69358;SDS011;56520;49.066;8.660;2022-07-29T15:05:56;3.20;;;1.10;;
69358;SDS011;56520;49.066;8.660;2022-07-29T15:08:21;6.75;;;1.42;;
69358;SDS011;56520;49.066;8.660;2022-07-29T15:10:47;3.17;;;1.15;;
69358;SDS011;56520;49.066;8.660;2022-07-29T15:13:12;3.90;;;1.23;;
69358;SDS011;56520;49.066;8.660;2022-07-29T15:15:38;2.65;;;1.13;;
69358;SDS011;56520;49.066;8.660;2022-07-29T15:18:03;4.93;;;1.25;;
69358;SDS011;56520;49.066;8.660;2022-07-29T15:20:29;5.35;;;1.10;;
69358;SDS011;56520;49.066;8.660;2022-07-29T15:22:55;4.70;;;1.10;;
69358;SDS011;56520;49.066;8.660;2022-07-29T15:25:21;4.32;;;1.13;;
69358;SDS011;56520;49.066;8.660;2022-07-29T15:27:47;3.17;;;1.10;;
69358;SDS011;56520;49.066;8.660;2022-07-29T15:30:13;4.13;;;1.20;;
69358;SDS011;56520;49.066;8.660;2022-07-29T15:32:41;4.57;;;1.30;;
69358;SDS011;56520;49.066;8.660;2022-07-29T15:35:06;4.55;;;1.20;;
69358;SDS011;56520;49.066;8.660;2022-07-29T15:37:32;3.50;;;1.20;;
69358;SDS011;56520;49.066;8.660;2022-07-29T15:39:59;3.08;;;1.10;;
69358;SDS011;56520;49.066;8.660;2022-07-29T15:42:25;3.67;;;1.20;;
69358;SDS011;56520;49.066;8.660;2022-07-29T15:44:50;5.25;;;1.20;;
69358;SDS011;56520;49.066;8.660;2022-07-29T15:47:16;3.30;;;1.05;;